Time;durP1;ratioP1;P1;durP2;ratioP2;P2;SDS_P1;SDS_P2;PMS_P1;PMS_P2;Temp;Humidity;BMP_temperature;BMP_pressure;BME280_temperature;BME280_humidity;BME280_pressure;Samples;Min_cycle;Max_cycle;Signal;HPM_P1;HPM_P2
2022/06/21 00:00:32;;;;;;;4.22;3.03;;;;;;;15.14;61.24;98828.81;5010774;28;20030;-75
2022/06/21 00:03:14;;;;;;;6.47;2.78;;;;;;;14.98;61.34;98822.75;5030446;28;20026;-76
2022/06/21 00:05:43;;;;;;;8.05;2.67;;;;;;;15.01;61.67;98827.53;5025135;28;20076;-76
2022/06/21 00:08:27;;;;;;;6.25;2.72;;;;;;;14.94;61.60;98830.53;5028279;28;20026;-77
2022/06/21 00:10:53;;;;;;;6.45;3.13;;;;;;;15.11;61.00;98821.31;5028668;28;20124;-75
2022/06/21 00:13:25;;;;;;;3.78;2.83;;;;;;;14.95;61.50;98826.78;5028504;28;20116;-76
2022/06/21 00:15:55;;;;;;;3.75;2.78;;;;;;;14.82;61.64;98823.88;5024793;28;20041;-76
2022/06/21 00:18:23;;;;;;;6.60;2.95;;;;;;;14.72;62.15;98819.34;5025625;28;20037;-76
2022/06/21 00:20:48;;;;;;;7.00;3.25;;;;;;;14.82;62.14;98824.69;5028123;28;20040;-76
2022/06/21 00:23:18;;;;;;;4.55;2.50;;;;;;;14.83;61.78;98834.34;5025568;28;20025;-76
2022/06/21 00:25:46;;;;;;;5.75;2.88;;;;;;;14.79;62.01;98832.47;5028475;28;20083;-76
2022/06/21 00:28:16;;;;;;;6.03;3.03;;;;;;;14.64;62.19;98824.50;5028561;28;20026;-76
2022/06/21 00:30:42;;;;;;;2.88;2.50;;;;;;;14.68;62.07;98821.00;5029237;28;20029;-76
2022/06/21 00:33:11;;;;;;;3.30;2.55;;;;;;;14.59;62.49;98822.63;5030612;28;20505;-76
2022/06/21 00:35:37;;;;;;;2.78;2.40;;;;;;;14.48;62.06;98791.50;5026923;28;20033;-76
2022/06/21 00:38:03;;;;;;;3.88;2.80;;;;;;;14.58;62.24;98802.22;5027454;28;21641;-76
2022/06/21 00:40:31;;;;;;;6.28;2.83;;;;;;;14.59;62.34;98822.63;5008460;28;20444;-76
2022/06/21 00:43:04;;;;;;;6.05;3.30;;;;;;;14.54;62.43;98817.28;5029037;28;20037;-76
2022/06/21 00:45:35;;;;;;;5.70;2.63;;;;;;;14.46;62.72;98831.28;5030070;28;20037;-76
2022/06/21 00:48:26;;;;;;;3.75;2.75;;;;;;;14.20;62.70;98832.38;5026581;28;20038;-76
2022/06/21 00:50:56;;;;;;;4.90;3.22;;;;;;;14.17;63.65;98839.13;5030223;28;20616;-76
2022/06/21 00:53:26;;;;;;;3.53;2.75;;;;;;;14.22;63.16;98838.28;5026165;28;20025;-76
2022/06/21 00:56:33;;;;;;;5.35;3.58;;;;;;;14.25;63.00;98843.13;5023497;28;20108;-76
2022/06/21 00:59:32;;;;;;;3.58;2.85;;;;;;;14.20;63.34;98843.13;5026137;28;20550;-75
2022/06/21 01:02:01;;;;;;;7.97;3.08;;;;;;;14.12;63.77;98833.75;5011865;28;20132;-76
2022/06/21 01:04:34;;;;;;;6.18;3.08;;;;;;;14.35;63.18;98837.75;5028732;28;20120;-76
2022/06/21 01:07:03;;;;;;;3.25;2.72;;;;;;;14.25;63.17;98846.63;5028701;28;20432;-76
2022/06/21 01:09:42;;;;;;;5.35;3.35;;;;;;;14.22;63.65;98838.28;5026617;28;20041;-76
2022/06/21 01:12:17;;;;;;;5.68;3.38;;;;;;;14.25;63.19;98835.88;5036987;28;20033;-76
2022/06/21 01:14:54;;;;;;;4.45;3.53;;;;;;;14.20;62.90;98824.34;5025162;28;20444;-76
2022/06/21 01:17:20;;;;;;;6.72;3.00;;;;;;;13.94;63.70;98806.66;5026571;28;20040;-76
2022/06/21 01:19:49;;;;;;;6.40;2.70;;;;;;;14.02;64.05;98824.94;5028280;28;20033;-76
2022/06/21 01:22:29;;;;;;;5.60;3.42;;;;;;;14.03;64.28;98840.75;5027329;28;20473;-76
2022/06/21 01:25:13;;;;;;;6.18;3.35;;;;;;;14.01;64.33;98837.53;5043277;28;20025;-76
2022/06/21 01:27:39;;;;;;;8.25;4.35;;;;;;;13.97;64.49;98832.97;5024415;28;20087;-76
2022/06/21 01:30:06;;;;;;;6.43;3.50;;;;;;;13.91;64.37;98823.34;5027372;28;20033;-75
2022/06/21 01:32:31;;;;;;;9.25;3.88;;;;;;;13.36;66.25;98811.53;5041761;28;20452;-76
2022/06/21 01:34:57;;;;;;;6.97;3.60;;;;;;;14.06;64.21;98817.94;5008132;28;20048;-76
2022/06/21 01:37:28;;;;;;;11.15;3.72;;;;;;;13.99;64.35;98828.13;5024737;28;20467;-76
2022/06/21 01:40:34;;;;;;;6.85;3.38;;;;;;;13.88;64.54;98819.31;5027355;28;20029;-76
2022/06/21 01:43:06;;;;;;;7.13;3.33;;;;;;;13.94;64.83;98842.38;5010121;28;20188;-76
2022/06/21 01:45:55;;;;;;;7.55;3.20;;;;;;;13.95;64.98;98844.00;5023027;28;20550;-76
2022/06/21 01:48:31;;;;;;;7.32;3.42;;;;;;;13.90;64.99;98829.75;5019579;28;20053;-76
2022/06/21 01:51:03;;;;;;;5.88;3.28;;;;;;;13.90;64.87;98837.81;5014699;28;20038;-77
2022/06/21 01:53:29;;;;;;;9.27;4.00;;;;;;;13.94;64.49;98845.06;5011918;28;20030;-77
2022/06/21 01:56:07;;;;;;;4.53;2.92;;;;;;;13.85;64.91;98838.63;5010280;28;20030;-76
2022/06/21 01:58:37;;;;;;;4.80;3.35;;;;;;;13.83;64.83;98845.31;5011939;28;20030;-76
2022/06/21 02:01:12;;;;;;;6.28;3.58;;;;;;;13.78;65.05;98850.72;5013245;28;20029;-77
2022/06/21 02:03:41;;;;;;;6.40;3.42;;;;;;;13.82;65.22;98854.47;5012043;28;20032;-77
2022/06/21 02:06:10;;;;;;;7.70;3.13;;;;;;;13.71;65.51;98842.13;5013185;28;20056;-76
2022/06/21 02:08:42;;;;;;;7.85;3.20;;;;;;;13.72;65.47;98841.03;5011541;28;20120;-76
2022/06/21 02:11:14;;;;;;;5.82;3.63;;;;;;;13.74;65.66;98849.63;5013207;28;20040;-77
2022/06/21 02:13:45;;;;;;;6.38;3.95;;;;;;;13.73;65.46;98854.19;5039964;28;20049;-76
2022/06/21 02:16:19;;;;;;;6.03;3.38;;;;;;;13.68;65.73;98856.06;5026992;28;20036;-76
2022/06/21 02:18:55;;;;;;;9.63;3.90;;;;;;;13.56;66.01;98839.44;5040844;28;20132;-76
2022/06/21 02:21:27;;;;;;;5.53;3.55;;;;;;;13.69;65.77;98850.44;5025959;28;20033;-76
2022/06/21 02:23:57;;;;;;;6.05;3.58;;;;;;;13.70;65.85;98846.66;5026263;28;20071;-76
2022/06/21 02:26:28;;;;;;;5.80;3.53;;;;;;;13.71;65.76;98858.22;5027517;28;20381;-76
2022/06/21 02:28:54;;;;;;;9.93;4.30;;;;;;;13.70;65.55;98851.22;5024297;28;20033;-76
2022/06/21 02:31:22;;;;;;;5.63;3.47;;;;;;;13.72;65.38;98855.25;5022658;28;20026;-76
2022/06/21 02:33:50;;;;;;;11.52;3.88;;;;;;;13.66;65.82;98858.19;5027149;28;20124;-77
2022/06/21 02:36:21;;;;;;;6.95;3.47;;;;;;;13.60;65.62;98859.28;5011576;28;20116;-76
2022/06/21 02:38:54;;;;;;;5.75;3.80;;;;;;;13.66;65.97;98864.38;5010778;28;20083;-76
2022/06/21 02:41:31;;;;;;;8.10;3.85;;;;;;;13.72;65.60;98852.56;5011207;28;20044;-76
2022/06/21 02:44:02;;;;;;;5.22;3.85;;;;;;;13.63;66.00;98854.16;5013157;28;20034;-76
2022/06/21 02:46:37;;;;;;;5.53;4.10;;;;;;;13.66;65.98;98853.66;5012714;28;20037;-76
2022/06/21 02:49:26;;;;;;;8.95;4.53;;;;;;;13.51;66.19;98849.09;5009239;28;20033;-76
2022/06/21 02:52:01;;;;;;;4.60;3.83;;;;;;;13.58;65.97;98840.78;5009851;28;20185;-76
2022/06/21 02:54:33;;;;;;;7.60;3.95;;;;;;;13.47;66.01;98841.84;5013476;28;20041;-76
2022/06/21 02:57:06;;;;;;;8.38;3.88;;;;;;;13.45;66.02;98849.34;5020355;28;20036;-76
2022/06/21 02:59:36;;;;;;;5.18;3.55;;;;;;;13.41;66.27;98845.59;5028232;28;20040;-76
2022/06/21 03:02:10;;;;;;;5.03;3.72;;;;;;;13.37;66.43;98853.34;5027803;28;20064;-76
2022/06/21 03:04:40;;;;;;;5.07;3.47;;;;;;;13.40;66.38;98846.66;5024676;28;20071;-76
2022/06/21 03:07:07;;;;;;;7.32;4.20;;;;;;;13.36;66.21;98833.00;5021536;28;20543;-76
2022/06/21 03:09:35;;;;;;;8.75;3.60;;;;;;;13.49;66.16;98837.84;5007476;28;20127;-76
2022/06/21 03:12:05;;;;;;;7.10;4.05;;;;;;;13.49;65.99;98820.94;5027715;28;20393;-76
2022/06/21 03:14:33;;;;;;;6.47;4.35;;;;;;;13.45;66.12;98828.69;5024844;28;20393;-76
2022/06/21 03:17:01;;;;;;;6.38;3.70;;;;;;;13.42;66.30;98826.56;5025144;28;20109;-76
2022/06/21 03:19:51;;;;;;;8.82;3.88;;;;;;;13.36;66.25;98819.59;5026690;28;20045;-77
2022/06/21 03:22:30;;;;;;;5.75;3.55;;;;;;;13.41;66.09;98819.56;5022056;28;20387;-76
2022/06/21 03:24:59;;;;;;;6.60;3.55;;;;;;;13.64;65.57;98809.38;5026295;28;20037;-76
2022/06/21 03:27:33;;;;;;;9.10;4.43;;;;;;;13.51;65.69;98813.41;5025963;28;20496;-76
2022/06/21 03:30:00;;;;;;;5.30;3.53;;;;;;;13.41;66.00;98816.09;5029376;28;20082;-76
2022/06/21 03:32:28;;;;;;;5.50;3.53;;;;;;;13.51;66.28;98810.75;5029307;28;20525;-76
2022/06/21 03:34:53;;;;;;;7.85;4.40;;;;;;;12.98;67.72;98813.84;5026557;28;20554;-76
2022/06/21 03:37:19;;;;;;;9.32;4.30;;;;;;;12.50;68.08;98796.28;5026861;28;20029;-76
2022/06/21 03:42:36;;;;;;;8.35;5.25;;;;;;;10.69;76.14;98821.56;5025729;28;20452;-76
2022/06/21 03:45:24;;;;;;;8.30;5.85;;;;;;;10.13;78.04;98820.88;5026459;28;20029;-76
2022/06/21 03:47:54;;;;;;;6.45;4.93;;;;;;;11.14;75.59;98820.19;5026434;28;20307;-76
2022/06/21 03:50:26;;;;;;;11.00;4.97;;;;;;;11.24;73.91;98798.94;5026667;28;20029;-76
2022/06/21 03:53:11;;;;;;;5.03;4.50;;;;;;;12.86;68.50;98810.59;5029291;28;20140;-76
2022/06/21 03:55:53;;;;;;;6.22;4.63;;;;;;;12.98;67.80;98820.00;5022874;28;20033;-76
2022/06/21 03:58:53;;;;;;;10.55;4.50;;;;;;;13.05;67.39;98823.28;5024862;28;20501;-76
2022/06/21 04:01:41;;;;;;;6.20;3.95;;;;;;;13.05;67.31;98819.78;5025289;28;20148;-76
2022/06/21 04:04:21;;;;;;;6.20;4.07;;;;;;;13.19;67.27;98815.53;5026365;28;20084;-76
2022/06/21 04:06:55;;;;;;;4.10;3.70;;;;;;;13.29;66.71;98832.44;5025409;28;20528;-76
2022/06/21 04:09:51;;;;;;;5.68;3.60;;;;;;;13.23;66.70;98819.28;5024491;28;20202;-76
2022/06/21 04:12:23;;;;;;;5.22;3.80;;;;;;;13.23;66.53;98811.25;5013945;28;20056;-76
2022/06/21 04:15:10;;;;;;;5.95;4.13;;;;;;;13.36;66.66;98827.63;5024714;28;20033;-76
2022/06/21 04:17:55;;;;;;;6.28;4.40;;;;;;;13.63;66.17;98835.41;5019279;28;20033;-77
2022/06/21 04:20:38;;;;;;;16.75;4.97;;;;;;;13.37;66.42;98831.91;5037199;28;20492;-78
2022/06/21 04:23:13;;;;;;;5.95;4.63;;;;;;;13.07;67.89;98849.81;5024175;28;20184;-76
2022/06/21 04:26:00;;;;;;;6.30;4.28;;;;;;;13.20;67.41;98839.38;5021083;28;20385;-76
2022/06/21 04:28:34;;;;;;;5.18;4.30;;;;;;;13.04;68.33;98848.41;5024522;28;20037;-77
2022/06/21 04:31:09;;;;;;;5.82;4.40;;;;;;;12.88;68.41;98849.47;5025463;28;20025;-77
2022/06/21 04:33:54;;;;;;;4.82;4.07;;;;;;;12.77;68.58;98855.84;5025405;28;20030;-77
2022/06/21 04:36:30;;;;;;;6.13;4.50;;;;;;;12.70;69.45;98858.75;5022485;28;20049;-77
2022/06/21 04:39:05;;;;;;;7.60;4.50;;;;;;;12.72;69.51;98866.53;5041654;28;20025;-77
2022/06/21 04:41:50;;;;;;;7.45;4.78;;;;;;;12.34;71.15;98861.53;5023712;28;20489;-76
2022/06/21 04:44:22;;;;;;;11.48;6.18;;;;;;;12.57;69.61;98855.75;5025247;28;20061;-76
2022/06/21 04:47:04;;;;;;;6.22;5.18;;;;;;;11.71;73.34;98855.19;5019625;28;20259;-77
2022/06/21 04:49:42;;;;;;;11.20;5.80;;;;;;;12.02;72.10;98859.72;5027172;28;20485;-77
2022/06/21 04:52:26;;;;;;;8.95;5.18;;;;;;;12.31;71.06;98859.38;5022293;28;20385;-76
2022/06/21 04:54:51;;;;;;;6.53;4.40;;;;;;;12.54;70.16;98866.97;5037201;28;20079;-76
2022/06/21 04:57:18;;;;;;;6.95;5.35;;;;;;;12.64;70.15;98873.22;5019971;28;20489;-76
2022/06/21 05:00:04;;;;;;;6.95;4.32;;;;;;;12.72;69.90;98872.69;5036446;28;20098;-77
2022/06/21 05:02:56;;;;;;;8.93;4.70;;;;;;;12.87;69.60;98869.28;5016582;28;20029;-76
2022/06/21 05:05:28;;;;;;;8.35;3.75;;;;;;;13.05;68.73;98868.84;5021346;28;20124;-77
2022/06/21 05:08:01;;;;;;;7.32;4.82;;;;;;;13.13;68.92;98871.00;5002706;28;20061;-77
2022/06/21 05:10:31;;;;;;;7.95;5.03;;;;;;;13.01;71.77;98861.56;5019820;28;20030;-77
2022/06/21 05:12:59;;;;;;;7.35;5.18;;;;;;;12.80;73.16;98866.03;5005337;28;20152;-77
2022/06/21 05:15:28;;;;;;;9.75;5.45;;;;;;;12.51;73.35;98872.88;5029205;28;21287;-77
2022/06/21 05:17:57;;;;;;;7.43;5.10;;;;;;;13.01;72.46;98866.91;5020264;28;20033;-77
2022/06/21 05:20:27;;;;;;;6.60;5.47;;;;;;;12.27;74.43;98852.94;5031537;28;20551;-77
2022/06/21 05:22:56;;;;;;;10.55;5.57;;;;;;;12.69;73.10;98865.19;5025064;28;20036;-77
2022/06/21 05:25:24;;;;;;;10.18;5.60;;;;;;;13.27;72.11;98865.94;5035615;28;20448;-78
2022/06/21 05:27:59;;;;;;;12.18;5.53;;;;;;;12.97;73.43;98869.31;5017044;28;20480;-77
2022/06/21 05:30:52;;;;;;;16.27;6.57;;;;;;;12.42;77.11;98885.13;5033534;28;20386;-78
2022/06/21 05:33:23;;;;;;;11.77;6.65;;;;;;;12.51;77.65;98875.53;5022029;28;20032;-78
2022/06/21 05:35:49;;;;;;;16.10;5.70;;;;;;;12.57;76.03;98869.94;5038055;28;20029;-78
2022/06/21 05:38:21;;;;;;;10.77;5.30;;;;;;;13.08;74.12;98884.41;5024687;28;20033;-77
2022/06/21 05:40:59;;;;;;;6.15;5.65;;;;;;;12.81;76.05;98889.06;5023225;28;20254;-77
2022/06/21 05:43:38;;;;;;;11.77;6.70;;;;;;;12.58;76.66;98881.47;5021315;28;20037;-77
2022/06/21 05:46:13;;;;;;;20.38;7.53;;;;;;;12.15;77.63;98887.09;5020469;28;20033;-77
2022/06/21 05:48:41;;;;;;;9.35;6.40;;;;;;;12.14;79.67;98883.63;5021116;28;20484;-77
2022/06/21 05:51:16;;;;;;;12.15;6.65;;;;;;;12.25;78.46;98879.94;5039676;28;20025;-77
2022/06/21 05:53:47;;;;;;;18.48;7.20;;;;;;;12.38;79.15;98878.69;5027661;28;20120;-78
2022/06/21 05:56:16;;;;;;;12.15;6.90;;;;;;;12.26;78.54;98883.41;5021232;28;20029;-77
2022/06/21 05:58:57;;;;;;;3.83;3.40;;;;;;;13.04;75.15;98883.25;5025809;28;20127;-77
2022/06/21 06:01:44;;;;;;;7.60;4.05;;;;;;;13.74;72.72;98882.59;5025155;28;20120;-77
2022/06/21 06:04:17;;;;;;;10.90;6.18;;;;;;;13.39;76.14;98895.97;5039806;28;20430;-77
2022/06/21 06:06:44;;;;;;;13.65;8.25;;;;;;;12.80;79.64;98882.09;5038536;28;20033;-77
2022/06/21 06:09:21;;;;;;;8.48;4.10;;;;;;;14.47;69.93;98881.25;5025031;28;20057;-77
2022/06/21 06:12:12;;;;;;;9.40;3.58;;;;;;;14.98;67.53;98866.53;5026111;28;20025;-77
2022/06/21 06:14:44;;;;;;;9.75;4.05;;;;;;;15.14;67.35;98879.88;5019523;28;20046;-77
2022/06/21 06:17:49;;;;;;;10.93;6.28;;;;;;;15.04;70.41;98891.50;5020753;28;20028;-77
2022/06/21 06:20:40;;;;;;;7.38;4.45;;;;;;;15.19;68.42;98879.88;5018209;28;20043;-77
2022/06/21 06:23:36;;;;;;;6.18;4.32;;;;;;;15.47;66.65;98888.06;5024598;28;20021;-77
2022/06/21 06:26:07;;;;;;;6.03;3.90;;;;;;;15.70;65.69;98898.13;5024257;28;20025;-77
2022/06/21 06:28:44;;;;;;;5.60;4.75;;;;;;;15.08;68.88;98902.50;5019466;28;20254;-77
2022/06/21 06:31:19;;;;;;;5.25;3.40;;;;;;;15.44;66.63;98909.34;5024149;28;20488;-77
2022/06/21 06:33:55;;;;;;;4.70;3.97;;;;;;;15.33;67.35;98899.72;5034831;28;20488;-77
2022/06/21 06:36:26;;;;;;;;;;;;;;;15.54;66.43;98901.22;5019842;28;20046;-77
2022/06/21 06:38:52;;;;;;;7.72;3.65;;;;;;;15.76;64.90;98882.75;5024854;28;19967;-77
2022/06/21 06:41:29;;;;;;;5.93;3.45;;;;;;;15.47;68.97;98892.63;5017023;28;20382;-77
2022/06/21 06:43:59;;;;;;;7.30;3.72;;;;;;;15.86;65.13;98901.50;5020816;28;20029;-77
2022/06/21 06:46:33;;;;;;;5.57;2.85;;;;;;;15.95;64.49;98909.78;5021211;28;20037;-77
2022/06/21 06:49:14;;;;;;;7.28;3.30;;;;;;;15.98;64.72;98901.97;5019241;28;20030;-77
2022/06/21 06:52:05;;;;;;;7.03;3.60;;;;;;;15.31;66.62;98901.88;5022572;28;20083;-77
2022/06/21 06:54:55;;;;;;;11.45;4.50;;;;;;;14.88;71.68;98909.59;5039166;28;20037;-77
2022/06/21 06:57:30;;;;;;;8.10;3.25;;;;;;;15.65;66.76;98914.31;5036833;28;20055;-76
2022/06/21 06:59:57;;;;;;;7.00;2.60;;;;;;;15.94;64.00;98910.88;5026407;28;20030;-76
2022/06/21 07:02:36;;;;;;;3.97;2.30;;;;;;;15.72;64.65;98905.94;5028902;28;20055;-76
2022/06/21 07:05:12;;;;;;;8.23;2.72;;;;;;;15.49;65.13;98910.13;5005809;28;20083;-77
2022/06/21 07:07:49;;;;;;;;;;;;;;;15.99;63.53;98914.31;5026105;28;20038;-76
2022/06/21 07:10:22;;;;;;;9.43;2.25;;;;;;;15.82;64.29;98888.91;5031847;28;19956;-77
2022/06/21 07:12:49;;;;;;;6.63;2.50;;;;;;;16.05;63.35;98907.03;5023171;28;20025;-76
2022/06/21 07:15:15;;;;;;;2.80;2.10;;;;;;;16.04;64.14;98900.03;5030607;28;20392;-76
2022/06/21 07:17:42;;;;;;;10.88;3.10;;;;;;;15.26;65.77;98909.97;5027992;28;20124;-77
2022/06/21 07:20:18;;;;;;;4.00;2.80;;;;;;;15.09;65.80;98904.94;5009013;28;20116;-77
2022/06/21 07:22:43;;;;;;;3.58;2.50;;;;;;;15.61;64.97;98912.47;5028508;28;20116;-76
2022/06/21 07:25:20;;;;;;;6.78;3.00;;;;;;;15.68;65.27;98927.22;5024204;28;20071;-76
2022/06/21 07:27:51;;;;;;;10.77;3.20;;;;;;;16.05;67.42;98913.22;5043632;28;20029;-76
2022/06/21 07:30:17;;;;;;;7.93;2.42;;;;;;;16.44;62.76;98913.13;5027050;28;20048;-77
2022/06/21 07:32:51;;;;;;;4.93;2.10;;;;;;;16.60;62.20;98900.34;5029156;28;20025;-76
2022/06/21 07:35:41;;;;;;;12.65;3.30;;;;;;;15.98;63.36;98901.97;5025353;28;20059;-76
2022/06/21 07:38:10;;;;;;;6.15;2.30;;;;;;;16.55;62.07;98900.38;5031276;28;20481;-76
2022/06/21 07:40:46;;;;;;;9.48;2.22;;;;;;;16.90;61.52;98908.09;5028904;28;20469;-76
2022/06/21 07:43:41;;;;;;;9.18;2.60;;;;;;;16.87;61.44;98904.06;5027103;28;20026;-76
2022/06/21 07:46:11;;;;;;;4.57;2.42;;;;;;;16.76;61.14;98894.50;5023886;28;20503;-76
2022/06/21 07:48:53;;;;;;;8.48;2.90;;;;;;;16.09;61.69;98900.00;5024732;28;20025;-77
2022/06/21 07:51:26;;;;;;;5.68;2.97;;;;;;;15.82;64.16;98907.72;5024475;28;20025;-77
2022/06/21 07:53:54;;;;;;;8.23;2.80;;;;;;;15.55;66.79;98910.91;5027366;28;20083;-76
2022/06/21 07:56:28;;;;;;;9.40;2.72;;;;;;;16.18;63.49;98896.41;5025324;28;20029;-76
2022/06/21 07:59:14;;;;;;;3.20;2.00;;;;;;;16.92;61.31;98901.31;5024584;28;20508;-76
2022/06/21 08:07:35;;;;;;;5.25;2.72;;;;;;;17.18;61.15;98894.50;5028308;28;20045;-77
2022/06/21 08:10:16;;;;;;;5.15;2.03;;;;;;;17.39;61.00;98902.31;5027273;28;20143;-76
2022/06/21 08:12:41;;;;;;;7.40;2.47;;;;;;;17.44;59.77;98886.88;5026297;28;20034;-76
2022/06/21 08:15:08;;;;;;;7.13;2.10;;;;;;;17.57;59.33;98890.75;5027899;28;20224;-76
2022/06/21 08:18:04;;;;;;;4.40;2.30;;;;;;;17.54;59.39;98894.84;5025869;28;20025;-77
2022/06/21 08:20:46;;;;;;;4.03;1.95;;;;;;;17.45;60.60;98895.78;5018228;28;20038;-76
2022/06/21 08:23:20;;;;;;;3.47;1.80;;;;;;;16.98;61.26;98902.03;5023480;28;20029;-77
2022/06/21 08:25:56;;;;;;;6.28;2.42;;;;;;;16.77;60.39;98900.69;5030918;28;20505;-76
2022/06/21 08:28:27;;;;;;;;;;;;;;;16.27;60.67;98894.69;5030362;28;20103;-76
2022/06/21 08:30:54;;;;;;;5.18;2.40;;;;;;;17.17;61.17;98886.69;5029460;28;19909;-76
2022/06/21 08:33:23;;;;;;;5.43;2.25;;;;;;;17.47;59.78;98889.00;5029246;28;20434;-77
2022/06/21 08:36:00;;;;;;;7.28;3.30;;;;;;;16.14;61.60;98891.88;5026716;28;20135;-76
2022/06/21 08:38:37;;;;;;;2.55;2.05;;;;;;;17.25;60.25;98891.44;5024184;28;20112;-76
2022/06/21 08:44:26;;;;;;;3.83;2.08;;;;;;;16.67;62.32;98887.31;5028663;28;20037;-76
2022/06/21 08:47:23;;;;;;;3.30;1.70;;;;;;;17.74;59.22;98882.94;5025753;28;20106;-77
2022/06/21 08:49:54;;;;;;;3.22;2.17;;;;;;;17.93;58.80;98873.69;5026076;28;20026;-76
2022/06/21 08:52:44;;;;;;;8.23;2.38;;;;;;;17.71;60.70;98864.63;5034504;28;20029;-77
2022/06/21 08:55:33;;;;;;;4.50;2.25;;;;;;;18.04;58.39;98866.25;5027988;28;20048;-77
2022/06/21 08:58:22;;;;;;;4.00;1.85;;;;;;;18.03;58.60;98867.34;5020084;28;20064;-76
2022/06/21 09:00:55;;;;;;;3.72;2.00;;;;;;;18.02;58.17;98854.13;5024113;28;20516;-77
2022/06/21 09:03:26;;;;;;;2.88;1.70;;;;;;;18.05;58.18;98864.31;5024922;28;20036;-76
2022/06/21 09:05:58;;;;;;;7.20;2.70;;;;;;;18.15;58.62;98872.28;5021576;28;20056;-77
2022/06/21 09:08:35;;;;;;;5.50;2.20;;;;;;;18.21;61.95;98871.88;5035025;28;20816;-76
2022/06/21 09:11:19;;;;;;;5.50;2.15;;;;;;;18.45;57.17;98871.75;5024400;28;20555;-76
2022/06/21 09:13:44;;;;;;;6.00;2.00;;;;;;;18.50;56.82;98863.56;5026638;28;20054;-76
2022/06/21 09:16:28;;;;;;;4.07;2.05;;;;;;;18.46;57.05;98852.53;5025864;28;20144;-77
2022/06/21 09:19:03;;;;;;;7.13;2.20;;;;;;;17.53;59.88;98857.34;5025314;28;20420;-77
2022/06/21 09:22:29;;;;;;;4.32;1.88;;;;;;;16.69;58.58;98861.69;5039762;28;20029;-76
2022/06/21 09:25:06;;;;;;;4.50;1.98;;;;;;;16.93;60.01;98851.69;5022866;28;20034;-77
2022/06/21 09:27:40;;;;;;;5.35;2.38;;;;;;;16.89;59.79;98842.56;5025686;28;20029;-76
2022/06/21 09:30:14;;;;;;;8.52;2.78;;;;;;;16.55;62.47;98843.78;5025022;28;20461;-76
2022/06/21 09:32:55;;;;;;;3.13;1.70;;;;;;;17.01;60.30;98832.19;5025950;28;20034;-76
2022/06/21 09:35:44;;;;;;;6.18;2.15;;;;;;;18.51;58.33;98830.81;5026678;28;20514;-76
2022/06/21 09:38:32;;;;;;;4.82;2.35;;;;;;;18.45;57.29;98815.81;5033377;28;20168;-76
2022/06/21 09:41:21;;;;;;;4.90;2.28;;;;;;;17.94;58.65;98824.00;5023703;28;20111;-76
2022/06/21 09:44:00;;;;;;;6.00;2.58;;;;;;;18.63;56.10;98822.97;5026125;28;20466;-77
2022/06/21 09:46:38;;;;;;;5.32;2.08;;;;;;;18.95;56.38;98816.66;5023958;28;20468;-77
2022/06/21 09:49:43;;;;;;;4.40;2.30;;;;;;;18.74;56.62;98823.56;5039547;28;20120;-76
2022/06/21 09:52:18;;;;;;;2.17;1.50;;;;;;;19.46;55.04;98816.34;5033649;28;20191;-76
2022/06/21 09:55:00;;;;;;;5.15;2.10;;;;;;;19.26;55.18;98803.25;5026542;28;20030;-76
2022/06/21 09:57:56;;;;;;;4.30;1.90;;;;;;;19.60;54.96;98811.66;5023585;28;20163;-76
2022/06/21 10:00:54;;;;;;;2.90;1.80;;;;;;;19.77;54.14;98813.69;5021748;28;20061;-77
2022/06/21 10:03:26;;;;;;;3.38;1.50;;;;;;;19.72;54.50;98824.66;4998624;28;20356;-77
2022/06/21 10:06:02;;;;;;;7.60;2.03;;;;;;;19.84;53.52;98814.84;5037166;28;20053;-77
2022/06/21 10:08:35;;;;;;;3.33;1.98;;;;;;;19.62;54.27;98833.81;5023086;28;20385;-76
2022/06/21 10:11:10;;;;;;;6.70;2.15;;;;;;;19.07;51.04;98819.63;5022473;28;20033;-77
2022/06/21 10:14:02;;;;;;;2.70;1.60;;;;;;;20.10;53.19;98801.44;5021214;28;20021;-77
2022/06/21 10:17:02;;;;;;;3.70;2.03;;;;;;;20.43;52.69;98810.88;5024739;28;20041;-77
2022/06/21 10:19:36;;;;;;;3.92;1.48;;;;;;;20.65;51.93;98808.09;5024651;28;20076;-77
2022/06/21 10:22:18;;;;;;;3.33;1.65;;;;;;;20.78;51.66;98806.34;5019456;28;20039;-77
2022/06/21 10:24:47;;;;;;;4.38;1.75;;;;;;;20.53;50.54;98799.75;5027307;28;20068;-77
2022/06/21 10:27:40;;;;;;;3.05;1.30;;;;;;;20.88;51.53;98789.78;5043995;28;20120;-77
2022/06/21 10:30:43;;;;;;;4.57;1.55;;;;;;;21.26;50.28;98795.44;5029338;28;20548;-77
2022/06/21 10:33:30;;;;;;;3.03;1.40;;;;;;;21.34;50.34;98803.56;5040348;28;20120;-77
2022/06/21 10:36:07;;;;;;;4.28;1.40;;;;;;;21.26;50.04;98795.44;5023591;28;20060;-77
2022/06/21 10:39:03;;;;;;;1.65;1.45;;;;;;;20.95;49.04;98795.53;5041692;28;20026;-77
2022/06/21 10:42:46;;;;;;;7.63;3.60;;;;;;;20.58;50.53;98794.19;5023875;28;20083;-77
2022/06/21 10:44:45;;;;;;;2.10;1.70;;;;;;;20.68;49.64;98793.91;5029178;28;20297;-77
2022/06/21 10:47:45;;;;;;;6.30;1.83;;;;;;;21.18;50.31;98788.91;5043874;28;20045;-77
2022/06/21 10:50:23;;;;;;;3.78;1.60;;;;;;;21.70;49.50;98775.28;5009065;28;20045;-77
2022/06/21 10:52:51;;;;;;;4.88;1.25;;;;;;;21.74;47.76;98779.75;5024978;28;20044;-77
2022/06/21 10:55:20;;;;;;;4.55;1.45;;;;;;;21.99;48.07;98772.69;5023987;28;20397;-77
2022/06/21 10:58:06;;;;;;;4.30;1.33;;;;;;;22.19;47.07;98772.75;5026178;28;20025;-77
2022/06/21 11:04:10;;;;;;;1.97;1.23;;;;;;;22.25;46.41;98766.03;5029861;28;20855;-77
2022/06/21 11:06:59;;;;;;;3.17;1.00;;;;;;;22.46;46.79;98751.69;5022140;28;20083;-77
2022/06/21 11:09:32;;;;;;;3.28;1.33;;;;;;;22.49;43.40;98753.75;5029421;28;20435;-77
2022/06/21 11:15:03;;;;;;;3.55;1.02;;;;;;;22.21;42.24;98740.59;5019415;28;20030;-77
2022/06/21 11:18:03;;;;;;;1.25;0.65;;;;;;;22.71;44.95;98743.41;5023357;28;20405;-77
2022/06/21 11:20:33;;;;;;;3.55;0.90;;;;;;;22.49;43.01;98726.53;5017132;28;20563;-77
2022/06/21 11:23:04;;;;;;;0.77;0.65;;;;;;;22.67;43.12;98733.50;5029188;28;20029;-77
2022/06/21 11:25:52;;;;;;;2.03;1.27;;;;;;;23.46;40.70;98730.66;5030378;28;20083;-77
2022/06/21 11:28:44;;;;;;;4.30;1.40;;;;;;;23.84;42.22;98732.03;5025093;28;20331;-77
2022/06/21 11:31:41;;;;;;;0.85;0.85;;;;;;;23.75;42.61;98723.13;5025316;28;20044;-77
2022/06/21 11:34:18;;;;;;;1.70;1.25;;;;;;;23.78;41.80;98724.41;5022101;28;20504;-77
2022/06/21 11:37:06;;;;;;;1.98;1.00;;;;;;;23.67;42.12;98713.13;5040906;28;20413;-77
2022/06/21 11:39:34;;;;;;;1.15;0.68;;;;;;;23.20;40.88;98717.25;5020044;28;20120;-77
2022/06/21 11:42:25;;;;;;;1.98;0.95;;;;;;;23.52;39.82;98710.25;5022853;28;20053;-77
2022/06/21 11:45:03;;;;;;;2.30;1.15;;;;;;;23.71;41.04;98708.59;5023449;28;20049;-77
2022/06/21 11:47:41;;;;;;;2.67;0.80;;;;;;;23.89;40.66;98706.47;5041574;28;20103;-77
2022/06/21 11:50:17;;;;;;;1.65;0.90;;;;;;;24.42;39.27;98705.47;5034846;28;20025;-77
2022/06/21 11:53:18;;;;;;;1.75;0.93;;;;;;;24.48;39.32;98702.19;5029904;28;20029;-77
2022/06/21 11:56:06;;;;;;;1.75;1.08;;;;;;;24.43;39.08;98696.16;5027355;28;20133;-78
2022/06/21 11:59:05;;;;;;;1.50;1.00;;;;;;;24.12;39.96;98685.03;5028194;28;20032;-77
2022/06/21 12:01:44;;;;;;;2.05;0.82;;;;;;;24.19;39.67;98671.63;5029705;28;20615;-77
2022/06/21 12:04:19;;;;;;;1.23;0.80;;;;;;;24.40;38.98;98689.44;5034999;28;20455;-77
2022/06/21 12:07:12;;;;;;;1.20;0.80;;;;;;;24.28;39.44;98694.13;5028868;28;20115;-78
2022/06/21 12:09:47;;;;;;;5.13;1.45;;;;;;;24.46;38.84;98690.78;5027728;28;20104;-78
2022/06/21 12:12:21;;;;;;;2.25;0.82;;;;;;;24.21;36.33;98691.97;5025770;28;20392;-77
2022/06/21 12:14:55;;;;;;;2.28;1.00;;;;;;;24.05;39.66;98699.22;5028198;28;20486;-78
2022/06/21 12:17:34;;;;;;;1.40;1.10;;;;;;;24.68;39.58;98700.47;5024943;28;20025;-77
2022/06/21 12:20:09;;;;;;;2.13;1.13;;;;;;;24.89;39.70;98698.38;5015627;28;20234;-78
2022/06/21 12:22:40;;;;;;;2.80;1.20;;;;;;;24.84;39.69;98698.63;5025139;28;20033;-78
2022/06/21 12:25:11;;;;;;;2.08;1.10;;;;;;;24.63;40.43;98700.69;5026304;28;20053;-78
2022/06/21 12:27:37;;;;;;;1.85;0.98;;;;;;;24.45;40.25;98688.41;5022677;28;20029;-78
2022/06/21 12:30:19;;;;;;;3.40;1.10;;;;;;;24.34;40.50;98690.81;5018978;28;20041;-78
2022/06/21 12:32:47;;;;;;;3.85;1.25;;;;;;;24.01;41.24;98700.22;5022852;28;20064;-77
2022/06/21 12:35:19;;;;;;;3.60;1.15;;;;;;;23.89;40.92;98687.38;5020191;28;20163;-77
2022/06/21 12:37:49;;;;;;;2.25;1.30;;;;;;;23.98;41.70;98681.81;5025455;28;20152;-77